Time;durP1;ratioP1;P1;durP2;ratioP2;P2;SDS_P1;SDS_P2;PMS_P1;PMS_P2;Temp;Humidity;BMP_temperature;BMP_pressure;BME280_temperature;BME280_humidity;BME280_pressure;Samples;Min_cycle;Max_cycle;Signal;HPM_P1;HPM_P2
2022/09/19 00:01:30;;;;;;;3.20;0.98;;;9.90;99.90;;;;;;4407311;27;10000352;-74
2022/09/19 00:04:02;;;;;;;4.25;1.00;;;10.00;99.90;;;;;;5118363;27;20564;-74
2022/09/19 00:06:29;;;;;;;2.90;1.10;;;10.00;99.90;;;;;;5140325;27;20110;-74
2022/09/19 00:08:57;;;;;;;4.45;0.95;;;10.00;99.90;;;;;;5107059;27;20015;-74
2022/09/19 00:11:24;;;;;;;3.50;0.80;;;9.90;99.90;;;;;;5117987;27;20399;-74
2022/09/19 00:13:52;;;;;;;3.20;0.80;;;10.00;99.90;;;;;;5123112;27;20150;-74
2022/09/19 00:16:18;;;;;;;4.97;0.90;;;10.00;99.90;;;;;;5120230;27;20031;-74
2022/09/19 00:18:44;;;;;;;6.72;0.95;;;10.00;99.90;;;;;;5117482;27;20035;-74
2022/09/19 00:21:10;;;;;;;4.88;1.17;;;10.00;99.90;;;;;;5117962;27;20042;-74
2022/09/19 00:26:20;;;;;;;4.25;0.90;;;10.00;99.90;;;;;;5107136;27;20041;-74
2022/09/19 00:28:46;;;;;;;3.10;0.80;;;9.90;99.90;;;;;;5119608;27;20432;-74
2022/09/19 00:31:17;;;;;;;3.38;0.80;;;9.90;99.90;;;;;;5129617;27;20717;-74
2022/09/19 00:33:44;;;;;;;3.90;0.80;;;9.90;99.90;;;;;;5111505;27;20080;-74
2022/09/19 00:36:10;;;;;;;2.75;1.05;;;9.80;99.90;;;;;;5122640;27;20571;-75
2022/09/19 00:38:36;;;;;;;2.80;0.57;;;9.90;99.90;;;;;;5119406;27;20018;-73
2022/09/19 00:41:02;;;;;;;8.07;1.23;;;9.90;99.90;;;;;;5129254;27;20079;-74
2022/09/19 00:43:45;;;;;;;2.80;0.77;;;;;;;;;;5110468;27;20044;-74
2022/09/19 00:46:11;;;;;;;2.20;0.63;;;10.00;99.90;;;;;;5111243;27;20023;-74
2022/09/19 00:48:41;;;;;;;4.03;1.13;;;10.00;99.90;;;;;;5122087;27;20031;-74
2022/09/19 00:51:10;;;;;;;2.45;0.88;;;10.00;99.90;;;;;;5110377;27;20027;-74
2022/09/19 00:53:37;;;;;;;3.45;1.00;;;;;;;;;;5115343;27;20023;-74
2022/09/19 00:56:04;;;;;;;4.20;1.10;;;;;;;;;;5121528;27;20035;-74
2022/09/19 00:58:31;;;;;;;4.25;1.00;;;;;;;;;;5114066;27;20022;-74
2022/09/19 01:00:59;;;;;;;2.35;1.10;;;;;;;;;;5128392;27;20031;-73
2022/09/19 01:03:25;;;;;;;4.45;1.10;;;;;;;;;;5112352;27;20027;-74
2022/09/19 01:05:56;;;;;;;2.80;0.80;;;;;;;;;;5112271;27;20080;-74
2022/09/19 01:08:34;;;;;;;2.08;0.95;;;;;;;;;;5112890;27;20107;-74
2022/09/19 01:11:10;;;;;;;3.88;1.02;;;;;;;;;;5123781;27;20038;-74
2022/09/19 01:13:54;;;;;;;1.95;0.88;;;;;;;;;;5128079;27;20023;-73
2022/09/19 01:16:32;;;;;;;4.18;1.02;;;;;;;;;;5107745;27;20023;-74
2022/09/19 01:19:04;;;;;;;3.80;1.10;;;;;;;;;;5112453;27;20078;-74
2022/09/19 01:21:40;;;;;;;5.70;1.20;;;;;;;;;;5114479;27;20076;-74
2022/09/19 01:24:10;;;;;;;5.25;1.38;;;;;;;;;;5114077;27;20438;-74
2022/09/19 01:26:48;;;;;;;3.25;1.27;;;;;;;;;;5127928;27;20034;-74
2022/09/19 01:29:27;;;;;;;5.55;1.30;;;;;;;;;;5112386;27;20031;-74
2022/09/19 01:31:55;;;;;;;5.95;1.10;;;;;;;;;;5117282;27;20024;-74
2022/09/19 01:34:37;;;;;;;3.53;1.30;;;;;;;;;;5116330;27;20023;-74
2022/09/19 01:37:09;;;;;;;4.35;1.08;;;;;;;;;;5121378;27;20034;-74
2022/09/19 01:39:37;;;;;;;6.68;1.55;;;;;;;;;;5127139;27;20500;-74
2022/09/19 01:42:03;;;;;;;5.70;1.25;;;;;;;;;;5113664;27;20151;-75
2022/09/19 01:44:30;;;;;;;7.75;1.63;;;;;;;;;;5139289;27;20458;-74
2022/09/19 01:46:56;;;;;;;9.32;1.70;;;;;;;;;;5122513;27;20510;-74
2022/09/19 01:49:41;;;;;;;6.57;1.40;;;;;;;;;;5116807;27;20035;-75
2022/09/19 01:52:07;;;;;;;7.35;1.52;;;;;;;;;;5108446;27;20023;-74
2022/09/19 01:54:34;;;;;;;7.60;1.40;;;;;;;;;;5122071;27;20030;-75
2022/09/19 01:57:00;;;;;;;4.72;1.38;;;;;;;;;;5111039;27;20474;-74
2022/09/19 01:59:46;;;;;;;6.45;1.33;;;;;;;;;;5122835;27;20122;-73
2022/09/19 02:02:17;;;;;;;6.43;1.52;;;;;;;;;;5113413;27;20072;-74
2022/09/19 02:05:02;;;;;;;7.82;1.70;;;;;;;;;;5128655;27;20030;-73
2022/09/19 02:07:39;;;;;;;6.60;1.58;;;;;;;;;;5116525;27;20047;-74
2022/09/19 02:10:08;;;;;;;11.45;2.25;;;;;;;;;;5132699;27;20030;-74
2022/09/19 02:12:36;;;;;;;7.93;1.95;;;;;;;;;;5123823;27;20427;-74
2022/09/19 02:15:03;;;;;;;5.20;1.80;;;;;;;;;;5135613;27;20050;-74
2022/09/19 02:17:33;;;;;;;8.93;2.20;;;;;;;;;;5115658;27;20027;-74
2022/09/19 02:20:07;;;;;;;6.00;2.30;;;;;;;;;;5125579;27;20114;-74
2022/09/19 02:22:36;;;;;;;8.73;2.15;;;;;;;;;;5124674;27;20106;-74
2022/09/19 02:25:05;;;;;;;8.70;2.50;;;;;;;;;;5118019;27;20063;-74
2022/09/19 02:27:34;;;;;;;8.65;2.40;;;;;;;;;;5133727;27;20023;-74
2022/09/19 02:30:05;;;;;;;8.60;2.30;;;;;;;;;;5144334;27;20250;-73
2022/09/19 02:32:31;;;;;;;8.63;2.58;;;;;;;;;;5109184;27;20055;-74
2022/09/19 02:34:59;;;;;;;6.30;2.30;;;;;;;;;;5129316;27;20058;-74
2022/09/19 02:37:30;;;;;;;14.52;2.83;;;;;;;;;;5117591;27;20102;-74
2022/09/19 02:40:04;;;;;;;8.35;2.78;;;;;;;;;;5130540;27;20652;-73
2022/09/19 02:42:32;;;;;;;;;;;;;;;;;;5110752;27;20132;-74
2022/09/19 02:45:17;;;;;;;7.78;3.05;;;;;;;;;;5115189;27;20351;-74
2022/09/19 02:47:53;;;;;;;8.52;2.42;;;;;;;;;;5105986;27;20074;-74
2022/09/19 02:50:28;;;;;;;8.68;2.38;;;;;;;;;;5124664;27;20066;-74
2022/09/19 02:52:55;;;;;;;6.03;2.42;;;;;;;;;;5119452;28;20456;-74
2022/09/19 02:55:33;;;;;;;9.48;2.58;;;;;;;;;;5111431;27;20015;-74
2022/09/19 02:58:02;;;;;;;9.57;2.90;;;;;;;;;;5117896;27;20035;-75
2022/09/19 03:00:30;;;;;;;8.80;2.58;;;10.40;99.90;;;;;;5129013;27;20608;-74
2022/09/19 03:04:11;;;;;;;10.18;3.10;;;10.20;99.90;;;;;;5130002;27;20036;-74
2022/09/19 03:05:54;;;;;;;8.48;2.45;;;10.10;99.90;;;;;;5120802;28;20039;-75
2022/09/19 03:08:24;;;;;;;7.43;2.50;;;10.00;99.90;;;;;;5114229;27;20073;-75
2022/09/19 03:10:54;;;;;;;9.57;2.50;;;10.00;99.90;;;;;;5124775;27;20696;-75
2022/09/19 03:13:24;;;;;;;10.68;2.40;;;10.00;99.90;;;;;;5140238;27;20069;-74
2022/09/19 03:16:04;;;;;;;9.40;2.90;;;10.00;99.90;;;;;;5128024;27;20027;-74
2022/09/19 03:18:31;;;;;;;11.70;2.65;;;9.90;99.90;;;;;;5128694;27;20019;-73
2022/09/19 03:20:59;;;;;;;9.65;2.72;;;;;;;;;;5120700;27;20036;-73
2022/09/19 03:23:35;;;;;;;10.95;2.72;;;;;;;;;;5134449;27;20113;-74
2022/09/19 03:26:01;;;;;;;11.48;2.80;;;;;;;;;;5108009;27;20031;-74
2022/09/19 03:28:28;;;;;;;10.68;2.78;;;;;;;;;;5119237;27;20110;-74
2022/09/19 03:30:59;;;;;;;10.35;2.78;;;;;;;;;;5130600;27;20131;-74
2022/09/19 03:33:26;;;;;;;10.68;3.10;;;;;;;;;;5122241;27;20022;-74
2022/09/19 03:35:52;;;;;;;9.48;3.08;;;;;;;;;;5134947;27;21366;-74
2022/09/19 03:38:20;;;;;;;9.25;3.15;;;;;;;;;;5112958;27;20111;-74
2022/09/19 03:40:46;;;;;;;11.88;3.50;;;10.10;99.90;;;;;;5134027;27;20051;-74
2022/09/19 03:43:11;;;;;;;10.68;3.05;;;10.10;99.90;;;;;;5119795;27;20243;-74
2022/09/19 03:45:37;;;;;;;10.10;3.00;;;10.10;99.90;;;;;;5141871;27;20031;-74
2022/09/19 03:48:02;;;;;;;6.90;2.88;;;10.10;99.90;;;;;;5126412;27;20047;-74
2022/09/19 03:50:28;;;;;;;12.57;3.30;;;10.00;99.90;;;;;;5110228;27;20636;-74
2022/09/19 03:52:54;;;;;;;10.43;2.90;;;10.00;99.90;;;;;;5136694;27;20031;-74
2022/09/19 03:55:19;;;;;;;9.48;2.85;;;10.00;99.90;;;;;;5117983;27;20140;-74
2022/09/19 03:57:45;;;;;;;9.95;2.83;;;10.00;99.90;;;;;;5111194;27;20024;-74
2022/09/19 04:00:11;;;;;;;8.07;2.67;;;10.00;99.90;;;;;;5131719;27;20376;-74
2022/09/19 04:02:37;;;;;;;8.93;2.95;;;10.00;99.90;;;;;;5137879;27;20058;-74
2022/09/19 04:05:03;;;;;;;9.43;3.20;;;10.00;99.90;;;;;;5146568;27;20386;-74
2022/09/19 04:07:29;;;;;;;9.02;2.63;;;10.10;99.90;;;;;;5126054;27;20134;-74
2022/09/19 04:09:56;;;;;;;9.98;2.67;;;10.10;99.90;;;;;;5120953;27;20071;-74
2022/09/19 04:12:23;;;;;;;10.18;3.10;;;10.10;99.90;;;;;;5127363;27;20030;-74
2022/09/19 04:14:48;;;;;;;9.18;2.63;;;10.10;99.90;;;;;;5139998;27;20015;-74
2022/09/19 04:17:14;;;;;;;10.70;2.53;;;10.10;99.90;;;;;;5127488;27;20067;-74
2022/09/19 04:19:42;;;;;;;10.68;2.78;;;10.10;99.90;;;;;;5122689;27;20457;-74
2022/09/19 04:22:08;;;;;;;8.73;2.60;;;10.10;99.90;;;;;;5124686;27;20039;-74
2022/09/19 04:24:34;;;;;;;6.63;2.17;;;10.10;99.90;;;;;;5114521;27;20462;-74
2022/09/19 04:27:02;;;;;;;7.82;2.30;;;10.10;99.90;;;;;;5128658;27;20088;-74
2022/09/19 04:29:27;;;;;;;5.22;1.95;;;10.10;99.90;;;;;;5121238;27;20019;-74
2022/09/19 04:31:54;;;;;;;7.25;2.20;;;10.00;99.90;;;;;;5117421;27;20031;-74
2022/09/19 04:34:20;;;;;;;5.68;1.90;;;10.00;99.90;;;;;;5129114;27;20055;-74
2022/09/19 04:36:50;;;;;;;9.25;2.03;;;10.00;99.90;;;;;;5125413;27;20031;-74
2022/09/19 04:39:16;;;;;;;7.57;1.95;;;10.00;99.90;;;;;;5113614;27;20046;-74
2022/09/19 04:41:42;;;;;;;6.55;1.70;;;10.00;99.90;;;;;;5117140;27;20745;-74
2022/09/19 04:44:10;;;;;;;9.73;2.00;;;10.00;99.90;;;;;;5132241;27;20106;-74
2022/09/19 04:46:38;;;;;;;7.97;1.63;;;10.00;99.90;;;;;;5130400;27;20042;-74
2022/09/19 04:49:04;;;;;;;8.02;2.22;;;10.00;99.90;;;;;;5145577;27;20039;-74
2022/09/19 04:51:30;;;;;;;5.32;1.95;;;10.00;99.90;;;;;;5143852;27;20483;-74
2022/09/19 04:53:57;;;;;;;5.72;1.77;;;10.00;99.90;;;;;;5133023;27;20099;-74
2022/09/19 04:56:23;;;;;;;4.72;1.83;;;10.00;99.90;;;;;;5128018;27;20021;-74
2022/09/19 04:58:48;;;;;;;4.35;1.88;;;10.00;99.90;;;;;;5127181;27;20114;-74
2022/09/19 05:01:14;;;;;;;7.30;2.25;;;10.00;99.90;;;;;;5124568;27;20031;-74
2022/09/19 05:03:43;;;;;;;5.72;2.00;;;10.00;99.90;;;;;;5127103;27;20033;-74
2022/09/19 05:06:10;;;;;;;6.20;1.55;;;10.00;99.90;;;;;;5115801;27;20503;-73
2022/09/19 05:08:37;;;;;;;5.88;2.00;;;10.00;99.90;;;;;;5115146;27;20027;-74
2022/09/19 05:11:05;;;;;;;5.57;1.90;;;10.00;99.90;;;;;;5111656;27;20071;-74
2022/09/19 05:13:33;;;;;;;11.02;2.47;;;10.00;99.90;;;;;;5124197;27;20034;-74
2022/09/19 05:16:00;;;;;;;7.53;1.92;;;10.00;99.90;;;;;;5122744;27;20106;-74
2022/09/19 05:18:27;;;;;;;6.28;2.20;;;10.00;99.90;;;;;;5120146;27;20080;-74
2022/09/19 05:20:54;;;;;;;6.97;2.20;;;10.10;99.90;;;;;;5117435;27;20042;-74
2022/09/19 05:23:22;;;;;;;6.15;1.85;;;10.10;99.90;;;;;;5149091;27;20359;-74
2022/09/19 05:25:48;;;;;;;5.82;2.28;;;10.10;99.90;;;;;;5125498;27;20586;-74
2022/09/19 05:28:13;;;;;;;9.15;2.03;;;10.10;99.90;;;;;;5106461;27;20080;-74
2022/09/19 05:30:46;;;;;;;7.70;1.88;;;10.10;99.90;;;;;;5113006;27;20031;-74
2022/09/19 05:33:11;;;;;;;7.35;2.05;;;10.10;99.90;;;;;;5115804;27;20591;-74
2022/09/19 05:35:37;;;;;;;6.68;2.35;;;10.10;99.90;;;;;;5114865;27;20060;-75
2022/09/19 05:38:03;;;;;;;3.90;2.05;;;10.10;99.90;;;;;;5115168;27;20101;-74
2022/09/19 05:40:30;;;;;;;6.05;1.75;;;10.10;99.90;;;;;;5112739;27;20118;-74
2022/09/19 05:43:02;;;;;;;4.78;1.83;;;10.10;99.90;;;;;;5111803;27;20125;-75
2022/09/19 05:45:29;;;;;;;4.72;1.98;;;10.10;99.90;;;;;;5113172;27;20073;-74
2022/09/19 05:48:06;;;;;;;5.13;2.03;;;10.10;99.90;;;;;;5108776;27;20034;-74
2022/09/19 05:50:32;;;;;;;6.20;1.95;;;10.20;99.90;;;;;;5113741;27;20114;-74
2022/09/19 05:55:42;;;;;;;7.22;2.50;;;10.20;99.90;;;;;;5108436;27;20132;-74
2022/09/19 05:58:09;;;;;;;6.60;2.03;;;10.20;99.90;;;;;;5108456;27;20016;-74
2022/09/19 06:00:37;;;;;;;7.55;2.38;;;10.20;99.90;;;;;;5105572;27;20031;-75
2022/09/19 06:03:05;;;;;;;6.15;1.92;;;10.30;99.90;;;;;;5111196;27;20046;-73
2022/09/19 06:05:38;;;;;;;6.60;2.40;;;10.30;99.90;;;;;;4398562;27;10000819;-76
2022/09/19 06:08:04;;;;;;;8.10;2.20;;;10.40;99.90;;;;;;5069425;28;20135;-75
2022/09/19 06:10:35;;;;;;;6.32;2.13;;;10.40;99.90;;;;;;5066610;28;20035;-74
2022/09/19 06:13:01;;;;;;;7.53;1.90;;;10.50;99.90;;;;;;5073393;28;20032;-75
2022/09/19 06:15:26;;;;;;;7.63;1.98;;;10.50;99.90;;;;;;5071769;28;20020;-75
2022/09/19 06:17:56;;;;;;;6.07;2.17;;;10.50;99.90;;;;;;5069622;28;20106;-75
2022/09/19 06:20:22;;;;;;;9.82;2.50;;;10.50;99.90;;;;;;5066873;28;20016;-75
2022/09/19 06:22:49;;;;;;;8.10;2.80;;;10.50;99.90;;;;;;5072347;28;20159;-75
2022/09/19 06:25:16;;;;;;;10.32;2.25;;;10.40;99.90;;;;;;5072049;28;20572;-75
2022/09/19 06:27:44;;;;;;;6.90;2.47;;;10.40;99.90;;;;;;5064893;28;20040;-75
2022/09/19 06:30:10;;;;;;;8.52;2.85;;;10.50;99.90;;;;;;5068683;28;20028;-75
2022/09/19 06:32:38;;;;;;;10.75;2.85;;;10.30;99.90;;;;;;5068856;28;20032;-75
2022/09/19 06:35:04;;;;;;;10.88;3.33;;;10.30;99.90;;;;;;5068355;28;20469;-74
2022/09/19 06:37:30;;;;;;;9.15;2.92;;;10.30;99.90;;;;;;5076199;28;20222;-75
2022/09/19 06:39:56;;;;;;;9.25;3.03;;;10.30;99.90;;;;;;5111079;27;20653;-75
2022/09/19 06:42:22;;;;;;;8.80;2.80;;;10.30;99.90;;;;;;5110955;27;20027;-74
2022/09/19 06:44:47;;;;;;;7.90;2.80;;;10.30;99.90;;;;;;5114559;27;20039;-75
2022/09/19 06:47:13;;;;;;;6.78;1.98;;;10.30;99.90;;;;;;5111273;28;20800;-76
2022/09/19 06:49:39;;;;;;;7.90;2.13;;;10.30;99.90;;;;;;5113104;27;20027;-76
2022/09/19 06:52:04;;;;;;;11.35;2.25;;;10.30;99.90;;;;;;5134795;27;20042;-76
2022/09/19 06:54:31;;;;;;;7.68;1.83;;;10.40;99.90;;;;;;5128382;27;20027;-76
2022/09/19 06:56:57;;;;;;;6.45;1.92;;;10.30;99.90;;;;;;5108698;27;20064;-77
2022/09/19 06:59:22;;;;;;;15.20;2.30;;;10.40;99.90;;;;;;5123483;27;20023;-76
2022/09/19 07:01:48;;;;;;;6.20;1.67;;;10.40;99.90;;;;;;5116410;27;20030;-77
2022/09/19 07:04:14;;;;;;;11.70;2.63;;;10.40;99.90;;;;;;5127960;27;20387;-77
2022/09/19 07:06:39;;;;;;;11.63;2.53;;;10.40;99.90;;;;;;5112052;27;20019;-77
2022/09/19 07:09:08;;;;;;;10.35;2.00;;;10.50;99.90;;;;;;5121222;27;20032;-77
2022/09/19 07:11:36;;;;;;;8.70;1.92;;;10.50;99.90;;;;;;5133855;27;20032;-75
2022/09/19 07:14:03;;;;;;;9.60;2.75;;;10.50;99.90;;;;;;5130083;27;20042;-76
2022/09/19 07:16:28;;;;;;;9.57;2.53;;;10.50;99.90;;;;;;5129121;27;20110;-76
2022/09/19 07:18:54;;;;;;;11.48;2.10;;;10.60;99.90;;;;;;5127613;27;20061;-75
2022/09/19 07:21:20;;;;;;;8.57;2.20;;;10.60;99.90;;;;;;5121838;27;20045;-75
2022/09/19 07:23:47;;;;;;;12.90;2.58;;;10.60;99.90;;;;;;5121943;27;20316;-75
2022/09/19 07:26:14;;;;;;;8.05;2.00;;;10.60;99.90;;;;;;5134828;27;20032;-76
2022/09/19 07:28:40;;;;;;;7.25;2.05;;;10.60;99.90;;;;;;5126606;27;20544;-75
2022/09/19 07:31:06;;;;;;;11.88;2.35;;;10.70;99.90;;;;;;5122392;27;20412;-75
2022/09/19 07:33:32;;;;;;;9.88;2.25;;;10.80;99.90;;;;;;5130731;27;20019;-75
2022/09/19 07:35:58;;;;;;;10.13;2.28;;;10.90;99.90;;;;;;5128531;27;20019;-76
2022/09/19 07:38:26;;;;;;;12.75;2.83;;;11.10;99.90;;;;;;5126203;27;20383;-75
2022/09/19 07:40:53;;;;;;;10.45;2.40;;;11.20;99.90;;;;;;5120839;27;20039;-75
2022/09/19 07:43:19;;;;;;;9.68;2.60;;;11.30;99.90;;;;;;5131768;27;20067;-75
2022/09/19 07:45:47;;;;;;;5.80;1.80;;;11.40;99.90;;;;;;5127209;27;20026;-74
2022/09/19 07:48:13;;;;;;;8.00;2.00;;;11.40;99.90;;;;;;5116980;27;20155;-75
2022/09/19 07:50:39;;;;;;;11.82;2.30;;;11.40;99.90;;;;;;5115259;27;20019;-75
2022/09/19 07:53:14;;;;;;;13.63;2.22;;;11.40;99.90;;;;;;5121134;27;20030;-75
2022/09/19 07:55:43;;;;;;;14.70;2.85;;;11.30;99.90;;;;;;5130142;27;20067;-78
2022/09/19 07:58:11;;;;;;;10.18;2.40;;;11.30;99.90;;;;;;5139841;27;20023;-74
2022/09/19 08:00:38;;;;;;;10.32;2.05;;;11.40;99.90;;;;;;5122312;27;20560;-75
2022/09/19 08:03:10;;;;;;;8.40;2.35;;;11.50;99.90;;;;;;5121945;27;20483;-76
2022/09/19 08:05:39;;;;;;;9.77;2.30;;;11.50;99.90;;;;;;5112436;27;20592;-75
2022/09/19 08:08:06;;;;;;;10.65;1.80;;;11.60;99.90;;;;;;5117989;27;20109;-76
2022/09/19 08:10:32;;;;;;;7.85;1.92;;;11.80;99.90;;;;;;5128446;27;20180;-75
2022/09/19 08:13:02;;;;;;;8.57;1.70;;;11.90;99.90;;;;;;5114168;27;20815;-75
2022/09/19 08:15:29;;;;;;;11.20;2.25;;;12.10;99.90;;;;;;5111789;27;20496;-78
2022/09/19 08:17:55;;;;;;;9.23;2.60;;;12.40;99.90;;;;;;5126129;27;20034;-78
2022/09/19 08:20:20;;;;;;;9.55;2.53;;;12.60;99.90;;;;;;5119347;27;20392;-76
2022/09/19 08:22:46;;;;;;;6.63;2.33;;;12.70;99.90;;;;;;5129855;27;20022;-76
2022/09/19 08:25:11;;;;;;;11.55;2.38;;;13.00;99.90;;;;;;5124481;27;20027;-77
2022/09/19 08:27:37;;;;;;;7.88;1.98;;;13.10;99.90;;;;;;5095467;27;20016;-77
2022/09/19 08:30:04;;;;;;;10.80;2.58;;;13.20;99.90;;;;;;5121194;27;20314;-77
2022/09/19 08:32:31;;;;;;;13.15;1.90;;;13.30;99.90;;;;;;5125653;27;20118;-76
2022/09/19 08:34:57;;;;;;;13.88;2.28;;;13.40;99.90;;;;;;5131204;27;20055;-78
2022/09/19 08:37:24;;;;;;;11.68;2.25;;;13.50;99.90;;;;;;5121655;27;20019;-77
2022/09/19 08:42:49;;;;;;;6.82;2.05;;;13.30;99.90;;;;;;5128682;27;20118;-78
2022/09/19 08:45:31;;;;;;;7.97;2.00;;;13.40;99.90;;;;;;5125420;27;20110;-78
2022/09/19 08:48:00;;;;;;;9.57;1.43;;;13.50;99.90;;;;;;5118633;27;20483;-82
2022/09/19 08:50:31;;;;;;;5.47;1.40;;;13.60;99.90;;;;;;5132549;27;20061;-80
2022/09/19 08:53:01;;;;;;;8.13;1.50;;;13.80;99.90;;;;;;5123394;27;20455;-79
2022/09/19 08:55:29;;;;;;;8.80;1.65;;;14.00;99.90;;;;;;5125207;27;20015;-82
2022/09/19 08:58:02;;;;;;;5.35;1.23;;;14.20;99.90;;;;;;5116079;27;20010;-79
2022/09/19 09:00:37;;;;;;;5.95;1.30;;;14.40;99.90;;;;;;5128420;27;20033;-78
2022/09/19 09:03:19;;;;;;;5.18;1.15;;;14.50;99.90;;;;;;5112437;27;20380;-80
2022/09/19 09:05:56;;;;;;;6.53;1.38;;;14.60;99.90;;;;;;5106227;27;20109;-81
2022/09/19 09:08:22;;;;;;;6.20;1.08;;;;;;;;;;5125976;27;20019;-77
2022/09/19 09:10:54;;;;;;;8.30;1.50;;;;;;;;;;5111323;27;20018;-77
2022/09/19 09:13:39;;;;;;;7.18;1.20;;;;;;;;;;5118552;27;20042;-77
2022/09/19 09:16:11;;;;;;;3.35;1.05;;;;;;;;;;5124998;27;20022;-78
2022/09/19 09:18:37;;;;;;;3.85;1.13;;;;;;;;;;5123603;27;20160;-76
2022/09/19 09:21:09;;;;;;;5.82;1.13;;;;;;;;;;5136089;27;20423;-76
2022/09/19 09:23:36;;;;;;;4.60;0.85;;;;;;;;;;5125033;27;20018;-76
2022/09/19 09:26:06;;;;;;;5.40;0.95;;;;;;;;;;5118365;27;20019;-76
2022/09/19 09:28:43;;;;;;;5.45;0.93;;;;;;;;;;5122502;27;20028;-80
2022/09/19 09:31:15;;;;;;;3.40;0.80;;;;;;;;;;5118347;27;20122;-80
2022/09/19 09:33:49;;;;;;;4.30;1.17;;;;;;;;;;5134414;27;20139;-77
2022/09/19 09:36:22;;;;;;;5.25;0.80;;;;;;;;;;5125964;27;20043;-75
2022/09/19 09:39:00;;;;;;;4.80;0.93;;;;;;;;;;5136020;27;20713;-78
2022/09/19 09:41:56;;;;;;;5.63;1.15;;;;;;;;;;5133756;27;20716;-79
2022/09/19 09:44:26;;;;;;;4.55;1.20;;;;;;;;;;5099035;27;20026;-79
2022/09/19 09:47:07;;;;;;;6.35;1.10;;;;;;;;;;5111356;27;20050;-79
2022/09/19 09:49:33;;;;;;;5.43;1.10;;;;;;;;;;5112817;27;20020;-78
2022/09/19 09:52:03;;;;;;;6.50;1.10;;;;;;;;;;5110165;27;20043;-78
2022/09/19 09:57:50;;;;;;;7.00;1.20;;;;;;;;;;5134715;27;20033;-76
2022/09/19 10:06:00;;;;;;;8.30;1.60;;;;;;;;;;5124233;27;20038;-77
2022/09/19 10:08:31;;;;;;;6.07;1.40;;;;;;;;;;5123265;27;20128;-77
2022/09/19 10:11:12;;;;;;;5.30;1.02;;;;;;;;;;5135803;27;20055;-77
2022/09/19 10:14:01;;;;;;;7.10;1.65;;;;;;;;;;5134848;27;20022;-77
2022/09/19 10:16:30;;;;;;;6.80;1.33;;;;;;;;;;5124398;27;20023;-74
2022/09/19 10:18:59;;;;;;;5.55;1.63;;;;;;;;;;5134177;27;20031;-77
2022/09/19 10:21:25;;;;;;;4.97;1.38;;;;;;;;;;5118989;27;20073;-74
2022/09/19 10:23:53;;;;;;;5.88;1.40;;;;;;;;;;5133339;27;20019;-76
2022/09/19 10:26:26;;;;;;;7.82;1.13;;;;;;;;;;5111444;27;20042;-77
2022/09/19 10:28:59;;;;;;;5.57;1.25;;;;;;;;;;5113464;27;20024;-77
2022/09/19 10:31:25;;;;;;;;;;;;;;;;;;5126689;27;20106;-76
2022/09/19 10:33:52;;;;;;;6.57;1.40;;;;;;;;;;5124533;27;20541;-75
2022/09/19 10:36:25;;;;;;;7.55;1.27;;;;;;;;;;5131641;27;20059;-76
2022/09/19 10:38:56;;;;;;;5.07;1.48;;;;;;;;;;5115469;27;20018;-76
2022/09/19 10:41:23;;;;;;;9.40;1.80;;;;;;;;;;5136742;27;20074;-78
2022/09/19 10:43:50;;;;;;;7.20;1.45;;;;;;;;;;5118212;27;20496;-77
2022/09/19 10:46:18;;;;;;;6.93;1.75;;;;;;;;;;5133057;27;20466;-79
2022/09/19 10:48:56;;;;;;;8.77;1.50;;;;;;;;;;5136007;27;20086;-77
2022/09/19 10:51:23;;;;;;;10.13;1.80;;;;;;;;;;5129831;27;20031;-76
2022/09/19 10:53:54;;;;;;;4.55;1.15;;;;;;;;;;5119937;27;20026;-79
2022/09/19 10:56:23;;;;;;;5.18;1.20;;;;;;;;;;5127475;27;20027;-77
2022/09/19 10:58:52;;;;;;;9.88;1.27;;;;;;;;;;5130754;27;20057;-77
2022/09/19 11:01:24;;;;;;;7.43;1.52;;;;;;;;;;5127504;27;20453;-78
2022/09/19 11:04:05;;;;;;;3.72;1.15;;;;;;;;;;5127945;27;20027;-77
2022/09/19 11:06:32;;;;;;;10.10;1.60;;;14.10;99.90;;;;;;5100438;28;20055;-75
2022/09/19 11:08:59;;;;;;;8.27;1.23;;;14.10;99.90;;;;;;5113658;27;20039;-76
2022/09/19 11:11:38;;;;;;;5.65;1.35;;;13.90;99.90;;;;;;5110951;27;20051;-77
2022/09/19 11:14:16;;;;;;;8.15;1.45;;;13.80;99.90;;;;;;5123192;27;20022;-76
2022/09/19 11:17:18;;;;;;;7.18;1.40;;;13.70;99.90;;;;;;5109498;27;20031;-77
2022/09/19 11:20:23;;;;;;;5.18;1.10;;;13.90;99.90;;;;;;5122855;27;20027;-75
2022/09/19 11:22:54;;;;;;;6.28;1.48;;;14.40;99.90;;;;;;5132142;27;20037;-75
2022/09/19 11:25:39;;;;;;;5.60;1.42;;;14.70;99.90;;;;;;5112944;27;20031;-76
2022/09/19 11:28:25;;;;;;;5.78;1.38;;;14.80;99.90;;;;;;5116215;27;20024;-75
2022/09/19 11:30:54;;;;;;;4.70;1.30;;;14.80;99.90;;;;;;5115231;27;20514;-77
2022/09/19 11:34:15;;;;;;;4.68;1.25;;;14.80;99.90;;;;;;5132602;27;20023;-77
2022/09/19 11:37:01;;;;;;;7.95;1.77;;;14.70;99.90;;;;;;5045894;27;20106;-78
2022/09/19 11:40:04;;;;;;;8.20;1.33;;;14.70;99.90;;;;;;5123458;27;20028;-78
2022/09/19 11:42:39;;;;;;;3.83;1.50;;;14.60;99.90;;;;;;5121645;27;20049;-77
2022/09/19 11:45:17;;;;;;;8.00;1.50;;;14.60;99.90;;;;;;5118479;27;20295;-77
2022/09/19 11:47:45;;;;;;;4.75;1.40;;;14.60;99.90;;;;;;5117959;27;20015;-76
2022/09/19 11:50:24;;;;;;;4.57;1.10;;;14.80;99.90;;;;;;5131760;27;20036;-77
2022/09/19 11:53:21;;;;;;;4.07;1.10;;;15.00;99.90;;;;;;5139836;27;20034;-78
2022/09/19 11:56:11;;;;;;;4.85;0.98;;;15.20;99.90;;;;;;5135402;27;20033;-75
2022/09/19 11:58:51;;;;;;;3.65;0.93;;;15.40;99.90;;;;;;5111428;27;20463;-77
2022/09/19 12:01:42;;;;;;;5.55;1.30;;;15.50;99.90;;;;;;5123379;27;20158;-77
2022/09/19 12:04:26;;;;;;;10.07;1.58;;;15.40;99.90;;;;;;5128648;27;20039;-76
2022/09/19 12:07:17;;;;;;;4.60;1.30;;;15.10;99.90;;;;;;5119028;27;20454;-76
2022/09/19 12:10:10;;;;;;;7.68;1.27;;;15.20;99.90;;;;;;5127347;27;20034;-76
2022/09/19 12:12:39;;;;;;;7.93;1.10;;;15.10;99.90;;;;;;5137747;27;20073;-77
2022/09/19 12:15:22;;;;;;;4.30;1.05;;;15.00;99.90;;;;;;5121356;27;20456;-78
2022/09/19 12:18:07;;;;;;;5.60;0.93;;;15.00;99.90;;;;;;5114212;27;20518;-78
2022/09/19 12:21:00;;;;;;;3.90;0.98;;;15.00;99.90;;;;;;5127206;27;20275;-77
2022/09/19 12:26:53;;;;;;;7.15;1.33;;;14.80;99.90;;;;;;5127896;27;20680;-76
2022/09/19 12:29:43;;;;;;;7.55;1.00;;;14.80;99.90;;;;;;5112661;27;20031;-76
2022/09/19 12:32:18;;;;;;;7.35;1.30;;;15.00;99.90;;;;;;5126062;27;20450;-78
2022/09/19 12:34:59;;;;;;;5.00;1.02;;;15.30;99.90;;;;;;5120885;27;20026;-77
2022/09/19 12:37:49;;;;;;;6.88;1.17;;;15.60;99.90;;;;;;5122571;27;20022;-76
2022/09/19 12:40:24;;;;;;;5.88;1.05;;;15.90;99.90;;;;;;5128950;27;20035;-77
2022/09/19 12:42:54;;;;;;;5.72;1.10;;;16.00;99.90;;;;;;5124848;27;20466;-76
2022/09/19 12:45:20;;;;;;;5.45;1.20;;;16.20;99.90;;;;;;5128007;27;20224;-77
2022/09/19 12:48:27;;;;;;;5.15;0.95;;;16.20;99.90;;;;;;5129278;27;20399;-77
2022/09/19 12:50:56;;;;;;;6.80;1.00;;;16.20;99.90;;;;;;5130850;27;20106;-76
2022/09/19 12:53:58;;;;;;;5.80;1.00;;;16.40;99.90;;;;;;5128154;27;20026;-77
2022/09/19 12:56:32;;;;;;;4.05;0.80;;;16.40;99.90;;;;;;5128116;27;20835;-77
2022/09/19 12:59:20;;;;;;;4.22;1.13;;;16.30;99.90;;;;;;5125469;27;20030;-75
2022/09/19 13:01:56;;;;;;;4.72;1.00;;;16.40;99.90;;;;;;5132406;27;20022;-78
2022/09/19 13:04:57;;;;;;;6.95;1.13;;;16.50;99.90;;;;;;5123122;27;20056;-79
2022/09/19 13:07:52;;;;;;;7.50;1.08;;;16.60;99.90;;;;;;5124748;27;20103;-78
2022/09/19 13:10:28;;;;;;;4.85;0.90;;;16.70;99.90;;;;;;5113282;27;20032;-77
2022/09/19 13:13:26;;;;;;;5.45;0.93;;;16.80;99.90;;;;;;5132302;27;20039;-78
2022/09/19 13:15:58;;;;;;;6.15;1.05;;;16.80;99.90;;;;;;5105739;27;20111;-79
2022/09/19 13:23:30;;;;;;;3.17;1.05;;;16.90;99.90;;;;;;5131312;27;20038;-79
2022/09/19 13:24:40;;;;;;;6.13;1.02;;;17.10;99.90;;;;;;5116983;27;20035;-78
2022/09/19 13:27:07;;;;;;;5.43;0.93;;;17.10;99.90;;;;;;5111015;27;20035;-78
2022/09/19 13:29:35;;;;;;;5.45;0.90;;;17.20;99.90;;;;;;5130062;27;20475;-78
2022/09/19 13:32:04;;;;;;;3.80;0.90;;;17.20;99.90;;;;;;5104733;27;20031;-76
2022/09/19 13:34:39;;;;;;;5.18;0.82;;;17.30;99.90;;;;;;5122794;27;20066;-74
2022/09/19 13:37:26;;;;;;;7.63;1.10;;;17.30;99.90;;;;;;5122623;27;20739;-77
2022/09/19 13:39:55;;;;;;;5.07;0.73;;;17.50;99.90;;;;;;5117564;27;20074;-78
2022/09/19 13:42:29;;;;;;;7.47;0.80;;;17.60;99.90;;;;;;5112707;27;20028;-79
2022/09/19 13:45:17;;;;;;;7.07;1.08;;;17.70;99.90;;;;;;5119951;27;20034;-80
2022/09/19 13:47:46;;;;;;;4.40;0.98;;;17.50;99.90;;;;;;5134892;27;20098;-80
2022/09/19 13:50:32;;;;;;;5.07;0.65;;;17.20;99.90;;;;;;5127436;27;20036;-79
2022/09/19 13:53:02;;;;;;;3.72;0.93;;;17.00;99.90;;;;;;5130395;27;20034;-78
2022/09/19 13:55:41;;;;;;;3.72;0.73;;;16.90;99.90;;;;;;5118678;27;20035;-79
2022/09/19 13:58:30;;;;;;;4.90;0.85;;;16.90;99.90;;;;;;5121709;27;20023;-78
2022/09/19 14:01:14;;;;;;;5.95;0.90;;;16.90;99.90;;;;;;5126758;27;20027;-78
2022/09/19 14:03:47;;;;;;;7.28;1.13;;;17.30;99.90;;;;;;5129225;27;20026;-78
2022/09/19 14:06:24;;;;;;;5.72;1.15;;;17.60;99.90;;;;;;5109132;27;20030;-77
2022/09/19 14:09:34;;;;;;;4.45;0.90;;;18.00;99.90;;;;;;5116819;27;21181;-77